sensor_id;sensor_type;location;lat;lon;timestamp;temperature;humidity
19974;DHT22;10148;47.694;9.442;2022-12-10T00:00:53;1.20;99.90
19974;DHT22;10148;47.694;9.442;2022-12-10T00:03:18;1.20;99.90
19974;DHT22;10148;47.694;9.442;2022-12-10T00:05:44;1.20;99.90
19974;DHT22;10148;47.694;9.442;2022-12-10T00:08:09;1.20;99.90
19974;DHT22;10148;47.694;9.442;2022-12-10T00:10:39;1.20;99.90
19974;DHT22;10148;47.694;9.442;2022-12-10T00:13:05;1.20;99.90
19974;DHT22;10148;47.694;9.442;2022-12-10T00:15:33;1.20;99.90
19974;DHT22;10148;47.694;9.442;2022-12-10T00:17:59;1.30;99.90
19974;DHT22;10148;47.694;9.442;2022-12-10T00:20:24;1.20;99.90
19974;DHT22;10148;47.694;9.442;2022-12-10T00:22:50;1.30;99.90
19974;DHT22;10148;47.694;9.442;2022-12-10T00:25:16;1.30;99.90
19974;DHT22;10148;47.694;9.442;2022-12-10T00:27:41;1.30;99.90
19974;DHT22;10148;47.694;9.442;2022-12-10T00:30:07;1.30;99.90
19974;DHT22;10148;47.694;9.442;2022-12-10T00:32:33;1.30;99.90
19974;DHT22;10148;47.694;9.442;2022-12-10T00:34:59;1.30;99.90
19974;DHT22;10148;47.694;9.442;2022-12-10T00:37:24;1.30;99.90
19974;DHT22;10148;47.694;9.442;2022-12-10T00:39:50;1.30;99.90
19974;DHT22;10148;47.694;9.442;2022-12-10T00:42:15;1.30;99.90
19974;DHT22;10148;47.694;9.442;2022-12-10T00:44:41;1.20;99.90
19974;DHT22;10148;47.694;9.442;2022-12-10T00:47:06;1.20;99.90
19974;DHT22;10148;47.694;9.442;2022-12-10T00:49:32;1.20;99.90
19974;DHT22;10148;47.694;9.442;2022-12-10T00:51:58;1.20;99.90
19974;DHT22;10148;47.694;9.442;2022-12-10T00:54:24;1.20;99.90
19974;DHT22;10148;47.694;9.442;2022-12-10T00:56:49;1.20;99.90
19974;DHT22;10148;47.694;9.442;2022-12-10T00:59:15;1.20;99.90
19974;DHT22;10148;47.694;9.442;2022-12-10T01:01:42;1.20;99.90
19974;DHT22;10148;47.694;9.442;2022-12-10T01:04:16;1.20;99.90
19974;DHT22;10148;47.694;9.442;2022-12-10T01:06:46;1.20;99.90
19974;DHT22;10148;47.694;9.442;2022-12-10T01:09:14;1.10;99.90
19974;DHT22;10148;47.694;9.442;2022-12-10T01:11:42;1.10;99.90
19974;DHT22;10148;47.694;9.442;2022-12-10T01:14:13;1.10;99.90
19974;DHT22;10148;47.694;9.442;2022-12-10T01:16:39;1.10;99.90
19974;DHT22;10148;47.694;9.442;2022-12-10T01:19:05;1.10;99.90
19974;DHT22;10148;47.694;9.442;2022-12-10T01:21:30;1.10;99.90
19974;DHT22;10148;47.694;9.442;2022-12-10T01:23:57;1.20;99.90
19974;DHT22;10148;47.694;9.442;2022-12-10T01:26:28;1.20;99.90
19974;DHT22;10148;47.694;9.442;2022-12-10T01:28:55;1.20;99.90
19974;DHT22;10148;47.694;9.442;2022-12-10T01:31:32;1.20;99.90
19974;DHT22;10148;47.694;9.442;2022-12-10T01:33:58;1.20;99.90
19974;DHT22;10148;47.694;9.442;2022-12-10T01:36:29;1.20;99.90
19974;DHT22;10148;47.694;9.442;2022-12-10T01:38:55;1.20;99.90
19974;DHT22;10148;47.694;9.442;2022-12-10T01:41:27;1.20;99.90
19974;DHT22;10148;47.694;9.442;2022-12-10T01:46:30;1.20;99.90
19974;DHT22;10148;47.694;9.442;2022-12-10T01:48:57;1.20;99.90
19974;DHT22;10148;47.694;9.442;2022-12-10T01:51:25;1.20;99.90
19974;DHT22;10148;47.694;9.442;2022-12-10T01:53:51;1.20;99.90
19974;DHT22;10148;47.694;9.442;2022-12-10T01:56:18;1.20;99.90
19974;DHT22;10148;47.694;9.442;2022-12-10T01:58:45;1.20;99.90
19974;DHT22;10148;47.694;9.442;2022-12-10T02:01:21;1.20;99.90
19974;DHT22;10148;47.694;9.442;2022-12-10T02:06:37;1.20;99.90
19974;DHT22;10148;47.694;9.442;2022-12-10T02:12:02;1.10;99.90
19974;DHT22;10148;47.694;9.442;2022-12-10T02:14:48;1.10;99.90
19974;DHT22;10148;47.694;9.442;2022-12-10T02:17:23;1.10;99.90
19974;DHT22;10148;47.694;9.442;2022-12-10T02:20:13;1.10;99.90
19974;DHT22;10148;47.694;9.442;2022-12-10T02:22:55;1.10;99.90
19974;DHT22;10148;47.694;9.442;2022-12-10T02:25:27;1.10;99.90
19974;DHT22;10148;47.694;9.442;2022-12-10T02:28:09;1.20;99.90
19974;DHT22;10148;47.694;9.442;2022-12-10T02:30:37;1.10;99.90
19974;DHT22;10148;47.694;9.442;2022-12-10T02:33:05;1.10;99.90
19974;DHT22;10148;47.694;9.442;2022-12-10T02:35:33;1.10;99.90
19974;DHT22;10148;47.694;9.442;2022-12-10T02:38:28;1.20;99.90
19974;DHT22;10148;47.694;9.442;2022-12-10T02:40:58;1.20;99.90
19974;DHT22;10148;47.694;9.442;2022-12-10T02:43:27;1.20;99.90
19974;DHT22;10148;47.694;9.442;2022-12-10T02:45:54;1.20;99.90
19974;DHT22;10148;47.694;9.442;2022-12-10T02:48:19;1.10;99.90
19974;DHT22;10148;47.694;9.442;2022-12-10T02:50:45;1.20;99.90
19974;DHT22;10148;47.694;9.442;2022-12-10T02:53:11;1.10;99.90
19974;DHT22;10148;47.694;9.442;2022-12-10T03:04:43;1.20;99.90
19974;DHT22;10148;47.694;9.442;2022-12-10T03:07:18;1.10;99.90
19974;DHT22;10148;47.694;9.442;2022-12-10T03:09:53;1.20;99.90
19974;DHT22;10148;47.694;9.442;2022-12-10T03:12:31;1.10;99.90
19974;DHT22;10148;47.694;9.442;2022-12-10T03:14:59;1.20;99.90
19974;DHT22;10148;47.694;9.442;2022-12-10T03:17:26;1.20;99.90
19974;DHT22;10148;47.694;9.442;2022-12-10T03:19:55;1.20;99.90
19974;DHT22;10148;47.694;9.442;2022-12-10T03:22:22;1.20;99.90
19974;DHT22;10148;47.694;9.442;2022-12-10T03:24:48;1.20;99.90
19974;DHT22;10148;47.694;9.442;2022-12-10T03:27:15;1.20;99.90
19974;DHT22;10148;47.694;9.442;2022-12-10T03:29:46;1.20;99.90
19974;DHT22;10148;47.694;9.442;2022-12-10T03:32:13;1.10;99.90
19974;DHT22;10148;47.694;9.442;2022-12-10T03:34:39;1.20;99.90
19974;DHT22;10148;47.694;9.442;2022-12-10T03:37:06;1.20;99.90
19974;DHT22;10148;47.694;9.442;2022-12-10T03:39:32;1.20;99.90
19974;DHT22;10148;47.694;9.442;2022-12-10T03:41:57;1.20;99.90
19974;DHT22;10148;47.694;9.442;2022-12-10T03:44:31;1.20;99.90
19974;DHT22;10148;47.694;9.442;2022-12-10T03:46:57;1.20;99.90
19974;DHT22;10148;47.694;9.442;2022-12-10T03:49:23;1.20;99.90
19974;DHT22;10148;47.694;9.442;2022-12-10T03:51:49;1.20;99.90
19974;DHT22;10148;47.694;9.442;2022-12-10T03:54:15;1.20;99.90
19974;DHT22;10148;47.694;9.442;2022-12-10T03:56:40;1.20;99.90
19974;DHT22;10148;47.694;9.442;2022-12-10T03:59:06;1.20;99.90
19974;DHT22;10148;47.694;9.442;2022-12-10T04:01:31;1.20;99.90
19974;DHT22;10148;47.694;9.442;2022-12-10T04:03:57;1.20;99.90
19974;DHT22;10148;47.694;9.442;2022-12-10T04:06:22;1.20;99.90
19974;DHT22;10148;47.694;9.442;2022-12-10T04:08:48;1.20;99.90
19974;DHT22;10148;47.694;9.442;2022-12-10T04:11:14;1.20;99.90
19974;DHT22;10148;47.694;9.442;2022-12-10T04:13:41;1.20;99.90
19974;DHT22;10148;47.694;9.442;2022-12-10T04:16:25;1.20;99.90
19974;DHT22;10148;47.694;9.442;2022-12-10T04:18:52;1.30;99.90
19974;DHT22;10148;47.694;9.442;2022-12-10T04:21:18;1.20;99.90
19974;DHT22;10148;47.694;9.442;2022-12-10T04:24:02;1.30;99.90
19974;DHT22;10148;47.694;9.442;2022-12-10T04:26:46;1.30;99.90
19974;DHT22;10148;47.694;9.442;2022-12-10T04:29:36;1.30;99.90
19974;DHT22;10148;47.694;9.442;2022-12-10T04:32:03;1.30;99.90
19974;DHT22;10148;47.694;9.442;2022-12-10T04:34:28;1.20;99.90
19974;DHT22;10148;47.694;9.442;2022-12-10T04:36:54;1.20;99.90
19974;DHT22;10148;47.694;9.442;2022-12-10T04:39:20;1.20;99.90
19974;DHT22;10148;47.694;9.442;2022-12-10T04:41:47;1.20;99.90
19974;DHT22;10148;47.694;9.442;2022-12-10T04:44:13;1.20;99.90
19974;DHT22;10148;47.694;9.442;2022-12-10T04:46:39;1.20;99.90
19974;DHT22;10148;47.694;9.442;2022-12-10T04:49:05;1.20;99.90
19974;DHT22;10148;47.694;9.442;2022-12-10T04:51:31;1.20;99.90
19974;DHT22;10148;47.694;9.442;2022-12-10T04:53:57;1.20;99.90
19974;DHT22;10148;47.694;9.442;2022-12-10T04:56:23;1.20;99.90
19974;DHT22;10148;47.694;9.442;2022-12-10T04:58:49;1.20;99.90
19974;DHT22;10148;47.694;9.442;2022-12-10T05:01:14;1.10;99.90
19974;DHT22;10148;47.694;9.442;2022-12-10T05:03:40;1.20;99.90
19974;DHT22;10148;47.694;9.442;2022-12-10T05:06:11;1.10;99.90
19974;DHT22;10148;47.694;9.442;2022-12-10T05:08:38;1.10;99.90
19974;DHT22;10148;47.694;9.442;2022-12-10T05:11:10;1.10;99.90
19974;DHT22;10148;47.694;9.442;2022-12-10T05:13:36;1.10;99.90
19974;DHT22;10148;47.694;9.442;2022-12-10T05:16:03;1.10;99.90
19974;DHT22;10148;47.694;9.442;2022-12-10T05:18:29;1.20;99.90
19974;DHT22;10148;47.694;9.442;2022-12-10T05:20:58;1.10;99.90
19974;DHT22;10148;47.694;9.442;2022-12-10T05:23:24;1.10;99.90
19974;DHT22;10148;47.694;9.442;2022-12-10T05:28:30;1.10;99.90
19974;DHT22;10148;47.694;9.442;2022-12-10T05:30:56;1.10;99.90
19974;DHT22;10148;47.694;9.442;2022-12-10T05:33:22;1.10;99.90
19974;DHT22;10148;47.694;9.442;2022-12-10T05:35:52;1.10;99.90
19974;DHT22;10148;47.694;9.442;2022-12-10T05:38:18;1.10;99.90
19974;DHT22;10148;47.694;9.442;2022-12-10T05:40:43;1.10;99.90
19974;DHT22;10148;47.694;9.442;2022-12-10T05:43:09;1.10;99.90
19974;DHT22;10148;47.694;9.442;2022-12-10T05:45:35;1.10;99.90
19974;DHT22;10148;47.694;9.442;2022-12-10T05:48:00;1.10;99.90
19974;DHT22;10148;47.694;9.442;2022-12-10T05:50:26;1.10;99.90
19974;DHT22;10148;47.694;9.442;2022-12-10T05:52:52;1.10;99.90
19974;DHT22;10148;47.694;9.442;2022-12-10T05:55:17;1.10;99.90
19974;DHT22;10148;47.694;9.442;2022-12-10T05:57:43;1.10;99.90
19974;DHT22;10148;47.694;9.442;2022-12-10T06:00:09;1.10;99.90
19974;DHT22;10148;47.694;9.442;2022-12-10T06:02:35;1.10;99.90
19974;DHT22;10148;47.694;9.442;2022-12-10T06:05:01;1.10;99.90
19974;DHT22;10148;47.694;9.442;2022-12-10T06:07:26;1.10;99.90
19974;DHT22;10148;47.694;9.442;2022-12-10T06:09:52;1.10;99.90
19974;DHT22;10148;47.694;9.442;2022-12-10T06:12:17;1.10;99.90
19974;DHT22;10148;47.694;9.442;2022-12-10T06:14:43;1.10;99.90
19974;DHT22;10148;47.694;9.442;2022-12-10T06:17:09;1.10;99.90
19974;DHT22;10148;47.694;9.442;2022-12-10T06:19:34;1.10;99.90
19974;DHT22;10148;47.694;9.442;2022-12-10T06:22:00;1.10;99.90
19974;DHT22;10148;47.694;9.442;2022-12-10T06:24:26;1.10;99.90
19974;DHT22;10148;47.694;9.442;2022-12-10T06:26:51;1.10;99.90
19974;DHT22;10148;47.694;9.442;2022-12-10T06:29:17;1.10;99.90
19974;DHT22;10148;47.694;9.442;2022-12-10T06:31:43;1.10;99.90
19974;DHT22;10148;47.694;9.442;2022-12-10T06:34:08;1.10;99.90
19974;DHT22;10148;47.694;9.442;2022-12-10T06:36:34;1.10;99.90
19974;DHT22;10148;47.694;9.442;2022-12-10T06:39:00;1.10;99.90
19974;DHT22;10148;47.694;9.442;2022-12-10T06:41:25;1.10;99.90
19974;DHT22;10148;47.694;9.442;2022-12-10T06:43:51;1.10;99.90
19974;DHT22;10148;47.694;9.442;2022-12-10T06:46:19;1.10;99.90
19974;DHT22;10148;47.694;9.442;2022-12-10T06:48:44;1.10;99.90
19974;DHT22;10148;47.694;9.442;2022-12-10T06:51:11;1.10;99.90
19974;DHT22;10148;47.694;9.442;2022-12-10T06:53:38;1.10;99.90
19974;DHT22;10148;47.694;9.442;2022-12-10T06:56:05;1.10;99.90
19974;DHT22;10148;47.694;9.442;2022-12-10T06:58:33;1.10;99.90
19974;DHT22;10148;47.694;9.442;2022-12-10T07:01:17;1.10;99.90
19974;DHT22;10148;47.694;9.442;2022-12-10T07:03:54;1.10;99.90
19974;DHT22;10148;47.694;9.442;2022-12-10T07:06:20;1.10;99.90
19974;DHT22;10148;47.694;9.442;2022-12-10T07:08:47;1.00;99.90
19974;DHT22;10148;47.694;9.442;2022-12-10T07:11:14;1.00;99.90
19974;DHT22;10148;47.694;9.442;2022-12-10T07:13:41;1.00;99.90
19974;DHT22;10148;47.694;9.442;2022-12-10T07:16:21;1.00;99.90
19974;DHT22;10148;47.694;9.442;2022-12-10T07:18:48;1.00;99.90
19974;DHT22;10148;47.694;9.442;2022-12-10T07:21:37;1.00;99.90
19974;DHT22;10148;47.694;9.442;2022-12-10T07:24:11;1.00;99.90
19974;DHT22;10148;47.694;9.442;2022-12-10T07:26:38;1.00;99.90
19974;DHT22;10148;47.694;9.442;2022-12-10T07:29:06;1.00;99.90
19974;DHT22;10148;47.694;9.442;2022-12-10T07:31:33;1.00;99.90
19974;DHT22;10148;47.694;9.442;2022-12-10T07:33:58;1.00;99.90
19974;DHT22;10148;47.694;9.442;2022-12-10T07:36:25;1.10;99.90
19974;DHT22;10148;47.694;9.442;2022-12-10T07:38:52;1.10;99.90
19974;DHT22;10148;47.694;9.442;2022-12-10T07:41:17;1.10;99.90
19974;DHT22;10148;47.694;9.442;2022-12-10T07:43:44;1.00;99.90
19974;DHT22;10148;47.694;9.442;2022-12-10T07:46:16;1.10;99.90
19974;DHT22;10148;47.694;9.442;2022-12-10T07:48:44;1.10;99.90
19974;DHT22;10148;47.694;9.442;2022-12-10T07:51:10;1.10;99.90
19974;DHT22;10148;47.694;9.442;2022-12-10T07:53:36;1.10;99.90
19974;DHT22;10148;47.694;9.442;2022-12-10T07:56:02;1.20;99.90
19974;DHT22;10148;47.694;9.442;2022-12-10T07:58:28;1.20;99.90
19974;DHT22;10148;47.694;9.442;2022-12-10T08:00:54;1.20;99.90
19974;DHT22;10148;47.694;9.442;2022-12-10T08:03:19;1.10;99.90
19974;DHT22;10148;47.694;9.442;2022-12-10T08:05:45;1.20;99.90
19974;DHT22;10148;47.694;9.442;2022-12-10T08:08:10;1.20;99.90
19974;DHT22;10148;47.694;9.442;2022-12-10T08:10:37;1.20;99.90
19974;DHT22;10148;47.694;9.442;2022-12-10T08:13:04;1.20;99.90
19974;DHT22;10148;47.694;9.442;2022-12-10T08:15:29;1.20;99.90
19974;DHT22;10148;47.694;9.442;2022-12-10T08:17:55;1.20;99.90
19974;DHT22;10148;47.694;9.442;2022-12-10T08:20:22;1.20;99.90
19974;DHT22;10148;47.694;9.442;2022-12-10T08:22:48;1.20;99.90
19974;DHT22;10148;47.694;9.442;2022-12-10T08:25:14;1.20;99.90
19974;DHT22;10148;47.694;9.442;2022-12-10T08:27:39;1.20;99.90
19974;DHT22;10148;47.694;9.442;2022-12-10T08:30:05;1.20;99.90
19974;DHT22;10148;47.694;9.442;2022-12-10T08:32:31;1.20;99.90
19974;DHT22;10148;47.694;9.442;2022-12-10T08:34:56;1.30;99.90
19974;DHT22;10148;47.694;9.442;2022-12-10T08:37:22;1.30;99.90
19974;DHT22;10148;47.694;9.442;2022-12-10T08:39:48;1.30;99.90
19974;DHT22;10148;47.694;9.442;2022-12-10T08:42:13;1.20;99.90
19974;DHT22;10148;47.694;9.442;2022-12-10T08:44:39;1.30;99.90
19974;DHT22;10148;47.694;9.442;2022-12-10T08:47:04;1.30;99.90
19974;DHT22;10148;47.694;9.442;2022-12-10T08:49:30;1.20;99.90
19974;DHT22;10148;47.694;9.442;2022-12-10T08:51:55;1.30;99.90
19974;DHT22;10148;47.694;9.442;2022-12-10T08:54:21;1.20;99.90
19974;DHT22;10148;47.694;9.442;2022-12-10T08:56:46;1.30;99.90
19974;DHT22;10148;47.694;9.442;2022-12-10T08:59:12;1.30;99.90
19974;DHT22;10148;47.694;9.442;2022-12-10T09:01:38;1.20;99.90
19974;DHT22;10148;47.694;9.442;2022-12-10T09:04:04;1.30;99.90
19974;DHT22;10148;47.694;9.442;2022-12-10T09:06:29;1.30;99.90
19974;DHT22;10148;47.694;9.442;2022-12-10T09:08:56;1.30;99.90
19974;DHT22;10148;47.694;9.442;2022-12-10T09:11:28;1.30;99.90
19974;DHT22;10148;47.694;9.442;2022-12-10T09:13:54;1.40;99.90
19974;DHT22;10148;47.694;9.442;2022-12-10T09:16:20;1.40;99.90
19974;DHT22;10148;47.694;9.442;2022-12-10T09:18:46;1.40;99.90
19974;DHT22;10148;47.694;9.442;2022-12-10T09:21:14;1.40;99.90
19974;DHT22;10148;47.694;9.442;2022-12-10T09:23:40;1.40;99.90
19974;DHT22;10148;47.694;9.442;2022-12-10T09:26:08;1.30;99.90
19974;DHT22;10148;47.694;9.442;2022-12-10T09:28:35;1.30;99.90
19974;DHT22;10148;47.694;9.442;2022-12-10T09:31:02;1.30;99.90
19974;DHT22;10148;47.694;9.442;2022-12-10T09:33:28;1.30;99.90
19974;DHT22;10148;47.694;9.442;2022-12-10T09:35:54;1.30;99.90
19974;DHT22;10148;47.694;9.442;2022-12-10T09:38:20;1.30;99.90
19974;DHT22;10148;47.694;9.442;2022-12-10T09:41:16;1.30;99.90
19974;DHT22;10148;47.694;9.442;2022-12-10T09:43:52;1.30;99.90
19974;DHT22;10148;47.694;9.442;2022-12-10T09:46:50;1.30;99.90
19974;DHT22;10148;47.694;9.442;2022-12-10T09:52:03;1.20;99.90
19974;DHT22;10148;47.694;9.442;2022-12-10T09:54:33;1.20;99.90
19974;DHT22;10148;47.694;9.442;2022-12-10T09:57:00;1.30;99.90
19974;DHT22;10148;47.694;9.442;2022-12-10T09:59:39;1.20;99.90
19974;DHT22;10148;47.694;9.442;2022-12-10T10:02:29;1.20;99.90
19974;DHT22;10148;47.694;9.442;2022-12-10T10:05:01;1.20;99.90
19974;DHT22;10148;47.694;9.442;2022-12-10T10:07:33;1.20;99.90
19974;DHT22;10148;47.694;9.442;2022-12-10T10:10:07;1.10;99.90
19974;DHT22;10148;47.694;9.442;2022-12-10T10:12:41;1.10;99.90
19974;DHT22;10148;47.694;9.442;2022-12-10T10:15:14;1.10;99.90
19974;DHT22;10148;47.694;9.442;2022-12-10T10:17:42;1.10;99.90
19974;DHT22;10148;47.694;9.442;2022-12-10T10:20:13;1.10;99.90
19974;DHT22;10148;47.694;9.442;2022-12-10T10:22:40;1.10;99.90
19974;DHT22;10148;47.694;9.442;2022-12-10T10:25:16;1.10;99.90
19974;DHT22;10148;47.694;9.442;2022-12-10T10:27:42;1.10;99.90
19974;DHT22;10148;47.694;9.442;2022-12-10T10:30:14;1.10;99.90
19974;DHT22;10148;47.694;9.442;2022-12-10T10:35:09;1.10;99.90
19974;DHT22;10148;47.694;9.442;2022-12-10T10:37:44;1.10;99.90
19974;DHT22;10148;47.694;9.442;2022-12-10T10:43:01;1.00;99.90
19974;DHT22;10148;47.694;9.442;2022-12-10T10:48:20;1.00;99.90
19974;DHT22;10148;47.694;9.442;2022-12-10T10:50:54;1.00;99.90
19974;DHT22;10148;47.694;9.442;2022-12-10T10:53:29;1.00;99.90
19974;DHT22;10148;47.694;9.442;2022-12-10T10:55:59;0.90;99.90
19974;DHT22;10148;47.694;9.442;2022-12-10T10:58:29;1.00;99.90
19974;DHT22;10148;47.694;9.442;2022-12-10T11:01:01;1.00;99.90
19974;DHT22;10148;47.694;9.442;2022-12-10T11:03:29;1.00;99.90
19974;DHT22;10148;47.694;9.442;2022-12-10T11:05:57;1.10;99.90
19974;DHT22;10148;47.694;9.442;2022-12-10T11:08:25;1.10;99.90
19974;DHT22;10148;47.694;9.442;2022-12-10T11:11:04;1.10;99.90
19974;DHT22;10148;47.694;9.442;2022-12-10T11:13:33;1.10;99.90
19974;DHT22;10148;47.694;9.442;2022-12-10T11:16:01;1.10;99.90
19974;DHT22;10148;47.694;9.442;2022-12-10T11:18:34;1.10;99.90
19974;DHT22;10148;47.694;9.442;2022-12-10T11:21:17;1.00;99.90
19974;DHT22;10148;47.694;9.442;2022-12-10T11:23:46;1.00;99.90
19974;DHT22;10148;47.694;9.442;2022-12-10T11:40:42;0.80;99.90
19974;DHT22;10148;47.694;9.442;2022-12-10T11:46:38;0.90;99.90
19974;DHT22;10148;47.694;9.442;2022-12-10T12:00:00;0.90;99.90
19974;DHT22;10148;47.694;9.442;2022-12-10T12:02:50;0.90;99.90
19974;DHT22;10148;47.694;9.442;2022-12-10T12:05:36;0.90;99.90
19974;DHT22;10148;47.694;9.442;2022-12-10T12:11:44;0.80;99.90
19974;DHT22;10148;47.694;9.442;2022-12-10T12:14:38;0.80;99.90
19974;DHT22;10148;47.694;9.442;2022-12-10T12:17:23;0.70;99.90
19974;DHT22;10148;47.694;9.442;2022-12-10T12:20:14;0.60;99.90
19974;DHT22;10148;47.694;9.442;2022-12-10T12:22:45;0.60;99.90
19974;DHT22;10148;47.694;9.442;2022-12-10T12:25:25;0.60;99.90
19974;DHT22;10148;47.694;9.442;2022-12-10T12:30:32;0.50;99.90
19974;DHT22;10148;47.694;9.442;2022-12-10T12:33:13;0.40;99.90
19974;DHT22;10148;47.694;9.442;2022-12-10T12:35:58;0.40;99.90
19974;DHT22;10148;47.694;9.442;2022-12-10T12:38:32;0.40;99.90
19974;DHT22;10148;47.694;9.442;2022-12-10T12:46:03;0.40;99.90
19974;DHT22;10148;47.694;9.442;2022-12-10T12:51:20;0.50;99.90
19974;DHT22;10148;47.694;9.442;2022-12-10T12:53:47;0.50;99.90
19974;DHT22;10148;47.694;9.442;2022-12-10T13:02:44;0.50;99.90
19974;DHT22;10148;47.694;9.442;2022-12-10T13:05:37;0.50;99.90
19974;DHT22;10148;47.694;9.442;2022-12-10T13:08:28;0.40;99.90
19974;DHT22;10148;47.694;9.442;2022-12-10T13:13:40;0.30;99.90
19974;DHT22;10148;47.694;9.442;2022-12-10T13:22:06;0.30;99.90
19974;DHT22;10148;47.694;9.442;2022-12-10T13:27:05;0.40;99.90
19974;DHT22;10148;47.694;9.442;2022-12-10T13:29:45;0.40;99.90
19974;DHT22;10148;47.694;9.442;2022-12-10T13:32:51;0.40;99.90
19974;DHT22;10148;47.694;9.442;2022-12-10T13:40:13;0.40;99.90
19974;DHT22;10148;47.694;9.442;2022-12-10T13:42:44;0.40;99.90
19974;DHT22;10148;47.694;9.442;2022-12-10T13:45:31;0.40;99.90
19974;DHT22;10148;47.694;9.442;2022-12-10T13:53:36;0.30;99.90
19974;DHT22;10148;47.694;9.442;2022-12-10T13:56:22;0.30;99.90
19974;DHT22;10148;47.694;9.442;2022-12-10T14:06:55;0.20;99.90
19974;DHT22;10148;47.694;9.442;2022-12-10T14:09:30;0.20;99.90
19974;DHT22;10148;47.694;9.442;2022-12-10T14:12:03;0.30;99.90
19974;DHT22;10148;47.694;9.442;2022-12-10T14:14:36;0.30;99.90
19974;DHT22;10148;47.694;9.442;2022-12-10T14:17:12;0.30;99.90
19974;DHT22;10148;47.694;9.442;2022-12-10T14:19:42;0.40;99.90
19974;DHT22;10148;47.694;9.442;2022-12-10T14:22:12;0.40;99.90
19974;DHT22;10148;47.694;9.442;2022-12-10T14:24:40;0.40;99.90
19974;DHT22;10148;47.694;9.442;2022-12-10T14:27:17;0.40;99.90
19974;DHT22;10148;47.694;9.442;2022-12-10T14:29:48;0.40;99.90
19974;DHT22;10148;47.694;9.442;2022-12-10T14:32:16;0.50;99.90
19974;DHT22;10148;47.694;9.442;2022-12-10T14:34:45;0.50;99.90
19974;DHT22;10148;47.694;9.442;2022-12-10T14:37:13;0.50;99.90
19974;DHT22;10148;47.694;9.442;2022-12-10T14:39:40;0.50;99.90
19974;DHT22;10148;47.694;9.442;2022-12-10T14:42:06;0.50;99.90
19974;DHT22;10148;47.694;9.442;2022-12-10T14:44:36;0.50;99.90
19974;DHT22;10148;47.694;9.442;2022-12-10T14:47:16;0.40;99.90
19974;DHT22;10148;47.694;9.442;2022-12-10T14:49:44;0.40;99.90
19974;DHT22;10148;47.694;9.442;2022-12-10T14:52:15;0.40;99.90
19974;DHT22;10148;47.694;9.442;2022-12-10T14:54:41;0.40;99.90
19974;DHT22;10148;47.694;9.442;2022-12-10T14:57:10;0.50;99.90
19974;DHT22;10148;47.694;9.442;2022-12-10T14:59:40;0.50;99.90
19974;DHT22;10148;47.694;9.442;2022-12-10T15:02:20;0.40;99.90
19974;DHT22;10148;47.694;9.442;2022-12-10T15:04:47;0.40;99.90
19974;DHT22;10148;47.694;9.442;2022-12-10T15:07:17;0.40;99.90
19974;DHT22;10148;47.694;9.442;2022-12-10T15:09:43;0.30;99.90
19974;DHT22;10148;47.694;9.442;2022-12-10T15:12:23;0.30;99.90
19974;DHT22;10148;47.694;9.442;2022-12-10T15:14:54;0.20;99.90
19974;DHT22;10148;47.694;9.442;2022-12-10T15:17:38;0.20;99.90
19974;DHT22;10148;47.694;9.442;2022-12-10T15:20:26;0.20;99.90
19974;DHT22;10148;47.694;9.442;2022-12-10T15:22:53;0.20;99.90
19974;DHT22;10148;47.694;9.442;2022-12-10T15:25:27;0.20;99.90
19974;DHT22;10148;47.694;9.442;2022-12-10T15:27:59;0.20;99.90
19974;DHT22;10148;47.694;9.442;2022-12-10T15:30:34;0.10;99.90
19974;DHT22;10148;47.694;9.442;2022-12-10T15:33:00;0.10;99.90
19974;DHT22;10148;47.694;9.442;2022-12-10T15:35:26;0.10;99.90
19974;DHT22;10148;47.694;9.442;2022-12-10T15:37:52;0.10;99.90
19974;DHT22;10148;47.694;9.442;2022-12-10T15:40:30;0.10;99.90
19974;DHT22;10148;47.694;9.442;2022-12-10T15:43:10;0.20;99.90
19974;DHT22;10148;47.694;9.442;2022-12-10T15:45:42;0.20;99.90
19974;DHT22;10148;47.694;9.442;2022-12-10T15:48:09;0.20;99.90
19974;DHT22;10148;47.694;9.442;2022-12-10T15:50:36;0.10;99.90
19974;DHT22;10148;47.694;9.442;2022-12-10T15:53:02;0.10;99.90
19974;DHT22;10148;47.694;9.442;2022-12-10T15:55:28;0.10;99.90
19974;DHT22;10148;47.694;9.442;2022-12-10T15:57:53;0.10;99.90
19974;DHT22;10148;47.694;9.442;2022-12-10T16:00:26;0.10;99.90
19974;DHT22;10148;47.694;9.442;2022-12-10T16:02:53;0.10;99.90
19974;DHT22;10148;47.694;9.442;2022-12-10T16:05:20;0.20;99.90
19974;DHT22;10148;47.694;9.442;2022-12-10T16:07:48;0.10;99.90
19974;DHT22;10148;47.694;9.442;2022-12-10T16:10:16;0.20;99.90
19974;DHT22;10148;47.694;9.442;2022-12-10T16:12:43;0.20;99.90
19974;DHT22;10148;47.694;9.442;2022-12-10T16:15:46;0.20;99.90
19974;DHT22;10148;47.694;9.442;2022-12-10T16:18:13;0.20;99.90
19974;DHT22;10148;47.694;9.442;2022-12-10T16:20:39;0.20;99.90
19974;DHT22;10148;47.694;9.442;2022-12-10T16:23:04;0.20;99.90
19974;DHT22;10148;47.694;9.442;2022-12-10T16:25:35;0.20;99.90
19974;DHT22;10148;47.694;9.442;2022-12-10T16:28:01;0.10;99.90
19974;DHT22;10148;47.694;9.442;2022-12-10T16:30:35;0.10;99.90
19974;DHT22;10148;47.694;9.442;2022-12-10T16:33:01;0.10;99.90
19974;DHT22;10148;47.694;9.442;2022-12-10T16:35:27;0.20;99.90
19974;DHT22;10148;47.694;9.442;2022-12-10T16:37:52;0.20;99.90
19974;DHT22;10148;47.694;9.442;2022-12-10T16:40:21;0.20;99.90
19974;DHT22;10148;47.694;9.442;2022-12-10T16:42:47;0.30;99.90
19974;DHT22;10148;47.694;9.442;2022-12-10T16:47:45;0.20;99.90
19974;DHT22;10148;47.694;9.442;2022-12-10T16:50:11;0.20;99.90
19974;DHT22;10148;47.694;9.442;2022-12-10T16:52:38;0.20;99.90
19974;DHT22;10148;47.694;9.442;2022-12-10T16:55:04;0.20;99.90
19974;DHT22;10148;47.694;9.442;2022-12-10T16:57:30;0.10;99.90
19974;DHT22;10148;47.694;9.442;2022-12-10T16:59:56;0.10;99.90
19974;DHT22;10148;47.694;9.442;2022-12-10T17:02:21;0.10;99.90
19974;DHT22;10148;47.694;9.442;2022-12-10T17:04:47;0.20;99.90
19974;DHT22;10148;47.694;9.442;2022-12-10T17:07:13;0.20;99.90
19974;DHT22;10148;47.694;9.442;2022-12-10T17:09:39;0.20;99.90
19974;DHT22;10148;47.694;9.442;2022-12-10T17:12:06;0.10;99.90
19974;DHT22;10148;47.694;9.442;2022-12-10T17:14:35;0.10;99.90
19974;DHT22;10148;47.694;9.442;2022-12-10T17:17:02;0.10;99.90
19974;DHT22;10148;47.694;9.442;2022-12-10T17:19:34;0.10;99.90
19974;DHT22;10148;47.694;9.442;2022-12-10T17:22:00;0.10;99.90
19974;DHT22;10148;47.694;9.442;2022-12-10T17:24:26;0.00;99.90
19974;DHT22;10148;47.694;9.442;2022-12-10T17:26:52;0.00;99.90
19974;DHT22;10148;47.694;9.442;2022-12-10T17:29:31;0.00;99.90
19974;DHT22;10148;47.694;9.442;2022-12-10T17:31:58;-0.10;99.90
19974;DHT22;10148;47.694;9.442;2022-12-10T17:34:23;-0.10;99.90
19974;DHT22;10148;47.694;9.442;2022-12-10T17:36:50;0.00;99.90
19974;DHT22;10148;47.694;9.442;2022-12-10T17:39:18;0.00;99.90
19974;DHT22;10148;47.694;9.442;2022-12-10T17:41:44;0.00;99.90
19974;DHT22;10148;47.694;9.442;2022-12-10T17:44:10;-0.10;99.90
19974;DHT22;10148;47.694;9.442;2022-12-10T17:46:35;-0.10;99.90
19974;DHT22;10148;47.694;9.442;2022-12-10T17:49:02;-0.10;99.90
19974;DHT22;10148;47.694;9.442;2022-12-10T17:51:29;-0.10;99.90